sensor_id;sensor_type;location;lat;lon;timestamp;P1;durP1;ratioP1;P2;durP2;ratioP2
18136;SDS011;9194;42.632;23.298;2022-12-29T00:02:30;18.73;;;9.97;;
18136;SDS011;9194;42.632;23.298;2022-12-29T00:07:31;20.50;;;10.00;;
18136;SDS011;9194;42.632;23.298;2022-12-29T00:12:32;21.23;;;9.43;;
18136;SDS011;9194;42.632;23.298;2022-12-29T00:17:52;23.07;;;10.20;;
18136;SDS011;9194;42.632;23.298;2022-12-29T00:22:53;17.50;;;10.00;;
18136;SDS011;9194;42.632;23.298;2022-12-29T00:28:13;23.07;;;11.97;;
18136;SDS011;9194;42.632;23.298;2022-12-29T00:33:34;27.50;;;13.47;;
18136;SDS011;9194;42.632;23.298;2022-12-29T00:38:57;22.03;;;11.67;;
18136;SDS011;9194;42.632;23.298;2022-12-29T00:44:26;27.23;;;13.57;;
18136;SDS011;9194;42.632;23.298;2022-12-29T00:49:28;25.30;;;12.87;;
18136;SDS011;9194;42.632;23.298;2022-12-29T00:54:33;27.83;;;13.60;;
18136;SDS011;9194;42.632;23.298;2022-12-29T00:59:37;29.33;;;14.83;;
18136;SDS011;9194;42.632;23.298;2022-12-29T01:04:39;33.13;;;16.70;;
18136;SDS011;9194;42.632;23.298;2022-12-29T01:09:41;31.73;;;15.50;;
18136;SDS011;9194;42.632;23.298;2022-12-29T01:15:01;38.07;;;16.40;;
18136;SDS011;9194;42.632;23.298;2022-12-29T01:20:02;38.30;;;17.60;;
18136;SDS011;9194;42.632;23.298;2022-12-29T01:25:05;40.07;;;19.37;;
18136;SDS011;9194;42.632;23.298;2022-12-29T01:30:07;43.27;;;19.70;;
18136;SDS011;9194;42.632;23.298;2022-12-29T01:35:09;41.43;;;18.77;;
18136;SDS011;9194;42.632;23.298;2022-12-29T01:40:11;40.73;;;18.27;;
18136;SDS011;9194;42.632;23.298;2022-12-29T01:45:13;39.70;;;19.87;;
18136;SDS011;9194;42.632;23.298;2022-12-29T01:50:20;44.77;;;21.47;;
18136;SDS011;9194;42.632;23.298;2022-12-29T01:55:28;49.83;;;23.43;;
18136;SDS011;9194;42.632;23.298;2022-12-29T02:00:32;44.00;;;21.70;;
18136;SDS011;9194;42.632;23.298;2022-12-29T02:11:04;46.43;;;20.93;;
18136;SDS011;9194;42.632;23.298;2022-12-29T02:21:39;46.67;;;22.70;;
18136;SDS011;9194;42.632;23.298;2022-12-29T02:47:53;60.27;;;27.20;;
18136;SDS011;9194;42.632;23.298;2022-12-29T02:53:17;56.33;;;26.00;;
18136;SDS011;9194;42.632;23.298;2022-12-29T02:58:41;65.40;;;28.50;;
18136;SDS011;9194;42.632;23.298;2022-12-29T03:09:26;63.57;;;28.43;;
18136;SDS011;9194;42.632;23.298;2022-12-29T03:20:18;63.40;;;29.23;;
18136;SDS011;9194;42.632;23.298;2022-12-29T03:25:30;64.87;;;28.40;;
18136;SDS011;9194;42.632;23.298;2022-12-29T03:30:35;61.43;;;28.80;;
18136;SDS011;9194;42.632;23.298;2022-12-29T03:35:40;57.27;;;27.57;;
18136;SDS011;9194;42.632;23.298;2022-12-29T03:40:49;56.07;;;26.30;;
18136;SDS011;9194;42.632;23.298;2022-12-29T03:45:58;56.07;;;26.17;;
18136;SDS011;9194;42.632;23.298;2022-12-29T03:51:00;49.10;;;24.60;;
18136;SDS011;9194;42.632;23.298;2022-12-29T03:56:02;51.30;;;23.67;;
18136;SDS011;9194;42.632;23.298;2022-12-29T04:01:04;42.47;;;19.63;;
18136;SDS011;9194;42.632;23.298;2022-12-29T04:06:08;35.97;;;16.93;;
18136;SDS011;9194;42.632;23.298;2022-12-29T04:11:15;29.27;;;14.23;;
18136;SDS011;9194;42.632;23.298;2022-12-29T04:16:17;32.00;;;16.00;;
18136;SDS011;9194;42.632;23.298;2022-12-29T04:21:18;40.00;;;17.23;;
18136;SDS011;9194;42.632;23.298;2022-12-29T04:26:20;47.13;;;23.57;;
18136;SDS011;9194;42.632;23.298;2022-12-29T04:31:32;57.30;;;22.10;;
18136;SDS011;9194;42.632;23.298;2022-12-29T04:36:34;48.27;;;21.03;;
18136;SDS011;9194;42.632;23.298;2022-12-29T04:41:35;41.63;;;20.57;;
18136;SDS011;9194;42.632;23.298;2022-12-29T04:46:37;42.03;;;20.43;;
18136;SDS011;9194;42.632;23.298;2022-12-29T04:51:43;43.73;;;21.27;;
18136;SDS011;9194;42.632;23.298;2022-12-29T04:56:48;45.17;;;22.07;;
18136;SDS011;9194;42.632;23.298;2022-12-29T05:01:51;49.67;;;23.73;;
18136;SDS011;9194;42.632;23.298;2022-12-29T05:06:53;51.83;;;24.03;;
18136;SDS011;9194;42.632;23.298;2022-12-29T05:11:55;62.60;;;28.73;;
18136;SDS011;9194;42.632;23.298;2022-12-29T05:16:56;50.27;;;24.93;;
18136;SDS011;9194;42.632;23.298;2022-12-29T05:21:59;57.90;;;26.43;;
18136;SDS011;9194;42.632;23.298;2022-12-29T05:27:02;63.60;;;27.77;;
18136;SDS011;9194;42.632;23.298;2022-12-29T05:32:21;68.40;;;28.63;;
18136;SDS011;9194;42.632;23.298;2022-12-29T05:37:22;59.30;;;27.43;;
18136;SDS011;9194;42.632;23.298;2022-12-29T05:42:24;67.63;;;29.77;;
18136;SDS011;9194;42.632;23.298;2022-12-29T05:47:57;69.80;;;29.50;;
18136;SDS011;9194;42.632;23.298;2022-12-29T05:53:31;58.47;;;28.80;;
18136;SDS011;9194;42.632;23.298;2022-12-29T05:58:32;60.17;;;30.57;;
18136;SDS011;9194;42.632;23.298;2022-12-29T06:03:34;72.97;;;30.07;;
18136;SDS011;9194;42.632;23.298;2022-12-29T06:08:37;69.60;;;31.63;;
18136;SDS011;9194;42.632;23.298;2022-12-29T06:13:39;78.17;;;32.50;;
18136;SDS011;9194;42.632;23.298;2022-12-29T06:18:41;73.37;;;31.27;;
18136;SDS011;9194;42.632;23.298;2022-12-29T06:23:43;79.87;;;33.17;;
18136;SDS011;9194;42.632;23.298;2022-12-29T06:28:48;74.63;;;32.87;;
18136;SDS011;9194;42.632;23.298;2022-12-29T06:33:51;77.80;;;32.73;;
18136;SDS011;9194;42.632;23.298;2022-12-29T06:38:52;74.53;;;34.30;;
18136;SDS011;9194;42.632;23.298;2022-12-29T06:43:54;79.23;;;34.70;;
18136;SDS011;9194;42.632;23.298;2022-12-29T06:49:20;82.40;;;34.67;;
18136;SDS011;9194;42.632;23.298;2022-12-29T06:54:21;76.83;;;32.47;;
18136;SDS011;9194;42.632;23.298;2022-12-29T06:59:23;70.40;;;32.80;;
18136;SDS011;9194;42.632;23.298;2022-12-29T07:04:25;85.07;;;34.83;;
18136;SDS011;9194;42.632;23.298;2022-12-29T07:09:26;69.80;;;30.53;;
18136;SDS011;9194;42.632;23.298;2022-12-29T07:14:27;61.83;;;30.10;;
18136;SDS011;9194;42.632;23.298;2022-12-29T07:19:29;62.60;;;29.10;;
18136;SDS011;9194;42.632;23.298;2022-12-29T07:24:30;57.87;;;27.60;;
18136;SDS011;9194;42.632;23.298;2022-12-29T07:29:31;63.27;;;29.20;;
18136;SDS011;9194;42.632;23.298;2022-12-29T07:34:32;61.57;;;28.97;;
18136;SDS011;9194;42.632;23.298;2022-12-29T07:39:34;52.17;;;25.57;;
18136;SDS011;9194;42.632;23.298;2022-12-29T07:44:37;50.43;;;24.40;;
18136;SDS011;9194;42.632;23.298;2022-12-29T07:49:53;51.80;;;25.40;;
18136;SDS011;9194;42.632;23.298;2022-12-29T07:54:55;47.87;;;24.57;;
18136;SDS011;9194;42.632;23.298;2022-12-29T07:59:56;48.17;;;25.60;;
18136;SDS011;9194;42.632;23.298;2022-12-29T08:04:58;53.43;;;25.50;;
18136;SDS011;9194;42.632;23.298;2022-12-29T08:09:59;52.87;;;26.17;;
18136;SDS011;9194;42.632;23.298;2022-12-29T08:15:00;52.30;;;26.77;;
18136;SDS011;9194;42.632;23.298;2022-12-29T08:20:02;51.93;;;26.93;;
18136;SDS011;9194;42.632;23.298;2022-12-29T08:25:04;53.70;;;27.27;;
18136;SDS011;9194;42.632;23.298;2022-12-29T08:30:05;59.30;;;27.40;;
18136;SDS011;9194;42.632;23.298;2022-12-29T08:35:07;54.33;;;26.40;;
18136;SDS011;9194;42.632;23.298;2022-12-29T08:40:09;54.77;;;29.27;;
18136;SDS011;9194;42.632;23.298;2022-12-29T08:45:11;60.00;;;28.57;;
18136;SDS011;9194;42.632;23.298;2022-12-29T08:50:12;63.00;;;27.97;;
18136;SDS011;9194;42.632;23.298;2022-12-29T08:55:13;56.80;;;28.33;;
18136;SDS011;9194;42.632;23.298;2022-12-29T09:00:15;56.53;;;28.80;;
18136;SDS011;9194;42.632;23.298;2022-12-29T09:05:16;61.43;;;29.90;;
18136;SDS011;9194;42.632;23.298;2022-12-29T09:10:18;58.23;;;29.30;;
18136;SDS011;9194;42.632;23.298;2022-12-29T09:15:19;60.97;;;29.30;;
18136;SDS011;9194;42.632;23.298;2022-12-29T09:20:20;67.13;;;28.53;;
18136;SDS011;9194;42.632;23.298;2022-12-29T09:25:22;56.93;;;28.23;;
18136;SDS011;9194;42.632;23.298;2022-12-29T09:30:25;61.60;;;28.87;;
18136;SDS011;9194;42.632;23.298;2022-12-29T09:35:26;55.73;;;26.97;;
18136;SDS011;9194;42.632;23.298;2022-12-29T09:40:31;52.90;;;27.70;;
18136;SDS011;9194;42.632;23.298;2022-12-29T09:45:42;49.80;;;26.13;;
18136;SDS011;9194;42.632;23.298;2022-12-29T09:50:47;50.97;;;25.63;;
18136;SDS011;9194;42.632;23.298;2022-12-29T09:55:54;57.37;;;27.33;;
18136;SDS011;9194;42.632;23.298;2022-12-29T10:06:12;58.73;;;27.97;;
18136;SDS011;9194;42.632;23.298;2022-12-29T10:27:55;62.90;;;29.23;;
18136;SDS011;9194;42.632;23.298;2022-12-29T10:33:01;59.70;;;29.60;;
18136;SDS011;9194;42.632;23.298;2022-12-29T10:43:46;62.73;;;29.83;;
18136;SDS011;9194;42.632;23.298;2022-12-29T10:48:51;58.13;;;29.47;;
18136;SDS011;9194;42.632;23.298;2022-12-29T10:59:25;70.23;;;32.33;;
18136;SDS011;9194;42.632;23.298;2022-12-29T11:09:37;61.50;;;31.90;;
18136;SDS011;9194;42.632;23.298;2022-12-29T11:14:40;61.07;;;31.50;;
18136;SDS011;9194;42.632;23.298;2022-12-29T11:19:42;55.77;;;30.10;;
18136;SDS011;9194;42.632;23.298;2022-12-29T11:24:44;64.23;;;29.63;;
18136;SDS011;9194;42.632;23.298;2022-12-29T11:29:47;59.57;;;29.23;;
18136;SDS011;9194;42.632;23.298;2022-12-29T11:34:49;55.40;;;27.80;;
18136;SDS011;9194;42.632;23.298;2022-12-29T11:39:59;52.30;;;26.83;;
18136;SDS011;9194;42.632;23.298;2022-12-29T11:45:06;58.03;;;28.30;;
18136;SDS011;9194;42.632;23.298;2022-12-29T11:50:17;64.27;;;29.80;;
18136;SDS011;9194;42.632;23.298;2022-12-29T11:55:27;59.47;;;27.27;;
18136;SDS011;9194;42.632;23.298;2022-12-29T12:00:31;59.83;;;28.60;;
18136;SDS011;9194;42.632;23.298;2022-12-29T12:05:41;59.93;;;27.87;;
18136;SDS011;9194;42.632;23.298;2022-12-29T12:10:59;62.40;;;30.00;;
18136;SDS011;9194;42.632;23.298;2022-12-29T12:16:08;52.87;;;26.07;;
18136;SDS011;9194;42.632;23.298;2022-12-29T12:21:29;54.57;;;24.77;;
18136;SDS011;9194;42.632;23.298;2022-12-29T12:31:50;39.40;;;20.33;;
18136;SDS011;9194;42.632;23.298;2022-12-29T12:53:23;37.10;;;19.57;;
18136;SDS011;9194;42.632;23.298;2022-12-29T13:09:25;33.57;;;15.93;;
18136;SDS011;9194;42.632;23.298;2022-12-29T13:30:21;23.80;;;13.80;;
18136;SDS011;9194;42.632;23.298;2022-12-29T13:41:04;21.07;;;11.20;;
18136;SDS011;9194;42.632;23.298;2022-12-29T13:46:12;23.60;;;11.53;;
18136;SDS011;9194;42.632;23.298;2022-12-29T13:51:19;24.83;;;11.43;;
18136;SDS011;9194;42.632;23.298;2022-12-29T14:01:46;22.97;;;10.73;;
18136;SDS011;9194;42.632;23.298;2022-12-29T14:07:13;29.40;;;12.10;;
18136;SDS011;9194;42.632;23.298;2022-12-29T14:12:39;26.03;;;12.47;;
18136;SDS011;9194;42.632;23.298;2022-12-29T14:17:44;19.67;;;11.03;;
18136;SDS011;9194;42.632;23.298;2022-12-29T14:23:15;14.90;;;8.67;;
18136;SDS011;9194;42.632;23.298;2022-12-29T14:28:29;22.27;;;11.67;;
18136;SDS011;9194;42.632;23.298;2022-12-29T14:33:35;37.23;;;16.67;;
18136;SDS011;9194;42.632;23.298;2022-12-29T14:38:37;35.17;;;17.10;;
18136;SDS011;9194;42.632;23.298;2022-12-29T14:49:22;24.27;;;13.53;;
18136;SDS011;9194;42.632;23.298;2022-12-29T14:59:39;35.63;;;17.37;;
18136;SDS011;9194;42.632;23.298;2022-12-29T15:04:41;38.10;;;18.60;;
18136;SDS011;9194;42.632;23.298;2022-12-29T15:09:58;38.10;;;16.63;;
18136;SDS011;9194;42.632;23.298;2022-12-29T15:15:39;30.40;;;11.83;;
18136;SDS011;9194;42.632;23.298;2022-12-29T15:20:38;17.27;;;9.47;;
18136;SDS011;9194;42.632;23.298;2022-12-29T15:25:46;17.07;;;7.63;;
18136;SDS011;9194;42.632;23.298;2022-12-29T15:30:53;15.90;;;8.57;;
18136;SDS011;9194;42.632;23.298;2022-12-29T15:35:57;30.47;;;12.70;;
18136;SDS011;9194;42.632;23.298;2022-12-29T15:41:06;37.63;;;16.23;;
18136;SDS011;9194;42.632;23.298;2022-12-29T15:46:17;43.63;;;18.07;;
18136;SDS011;9194;42.632;23.298;2022-12-29T15:51:24;25.93;;;11.30;;
18136;SDS011;9194;42.632;23.298;2022-12-29T15:56:29;19.00;;;9.23;;
18136;SDS011;9194;42.632;23.298;2022-12-29T16:01:32;15.57;;;8.80;;
18136;SDS011;9194;42.632;23.298;2022-12-29T16:06:39;19.93;;;9.30;;
18136;SDS011;9194;42.632;23.298;2022-12-29T16:11:55;12.07;;;7.93;;
18136;SDS011;9194;42.632;23.298;2022-12-29T16:17:01;17.43;;;8.80;;
18136;SDS011;9194;42.632;23.298;2022-12-29T16:27:32;22.03;;;11.07;;
18136;SDS011;9194;42.632;23.298;2022-12-29T16:32:34;24.87;;;11.73;;
18136;SDS011;9194;42.632;23.298;2022-12-29T16:37:36;18.57;;;10.47;;
18136;SDS011;9194;42.632;23.298;2022-12-29T16:47:39;18.70;;;9.67;;
18136;SDS011;9194;42.632;23.298;2022-12-29T16:52:41;15.50;;;7.47;;
18136;SDS011;9194;42.632;23.298;2022-12-29T16:57:42;11.83;;;6.63;;
18136;SDS011;9194;42.632;23.298;2022-12-29T17:02:45;12.90;;;6.97;;
18136;SDS011;9194;42.632;23.298;2022-12-29T17:07:47;11.53;;;6.77;;
18136;SDS011;9194;42.632;23.298;2022-12-29T17:12:49;22.27;;;7.97;;
18136;SDS011;9194;42.632;23.298;2022-12-29T17:17:51;15.57;;;8.87;;
18136;SDS011;9194;42.632;23.298;2022-12-29T17:22:55;21.93;;;8.60;;
18136;SDS011;9194;42.632;23.298;2022-12-29T17:27:59;14.73;;;8.87;;
18136;SDS011;9194;42.632;23.298;2022-12-29T17:33:03;16.97;;;8.77;;
18136;SDS011;9194;42.632;23.298;2022-12-29T17:38:19;17.90;;;8.30;;
18136;SDS011;9194;42.632;23.298;2022-12-29T17:43:23;13.47;;;7.70;;
18136;SDS011;9194;42.632;23.298;2022-12-29T17:48:25;12.03;;;7.47;;
18136;SDS011;9194;42.632;23.298;2022-12-29T17:53:27;14.57;;;7.70;;
18136;SDS011;9194;42.632;23.298;2022-12-29T17:58:30;13.13;;;7.37;;
18136;SDS011;9194;42.632;23.298;2022-12-29T18:03:33;18.20;;;8.83;;
18136;SDS011;9194;42.632;23.298;2022-12-29T18:08:37;21.50;;;10.70;;
18136;SDS011;9194;42.632;23.298;2022-12-29T18:13:39;23.20;;;10.37;;
18136;SDS011;9194;42.632;23.298;2022-12-29T18:18:40;15.63;;;8.40;;
18136;SDS011;9194;42.632;23.298;2022-12-29T18:23:41;18.87;;;9.33;;
18136;SDS011;9194;42.632;23.298;2022-12-29T18:28:43;13.47;;;8.50;;
18136;SDS011;9194;42.632;23.298;2022-12-29T18:33:45;17.63;;;7.23;;
18136;SDS011;9194;42.632;23.298;2022-12-29T18:38:48;15.80;;;8.50;;
18136;SDS011;9194;42.632;23.298;2022-12-29T18:43:51;16.13;;;9.17;;
18136;SDS011;9194;42.632;23.298;2022-12-29T18:48:53;16.50;;;9.13;;
18136;SDS011;9194;42.632;23.298;2022-12-29T18:53:54;17.13;;;7.73;;
18136;SDS011;9194;42.632;23.298;2022-12-29T18:58:55;16.20;;;9.00;;
18136;SDS011;9194;42.632;23.298;2022-12-29T19:03:57;21.77;;;11.30;;
18136;SDS011;9194;42.632;23.298;2022-12-29T19:08:59;17.10;;;8.13;;
18136;SDS011;9194;42.632;23.298;2022-12-29T19:14:00;11.23;;;6.20;;
18136;SDS011;9194;42.632;23.298;2022-12-29T19:19:01;12.37;;;6.23;;
18136;SDS011;9194;42.632;23.298;2022-12-29T19:24:04;14.13;;;6.07;;
18136;SDS011;9194;42.632;23.298;2022-12-29T19:29:07;10.73;;;7.10;;
18136;SDS011;9194;42.632;23.298;2022-12-29T19:34:14;28.03;;;13.77;;
18136;SDS011;9194;42.632;23.298;2022-12-29T19:39:16;15.53;;;9.10;;
18136;SDS011;9194;42.632;23.298;2022-12-29T19:44:17;13.73;;;7.40;;
18136;SDS011;9194;42.632;23.298;2022-12-29T19:49:19;16.63;;;9.63;;
18136;SDS011;9194;42.632;23.298;2022-12-29T19:54:21;22.80;;;11.43;;
18136;SDS011;9194;42.632;23.298;2022-12-29T19:59:22;23.97;;;10.90;;
18136;SDS011;9194;42.632;23.298;2022-12-29T20:04:23;19.57;;;10.20;;
18136;SDS011;9194;42.632;23.298;2022-12-29T20:09:24;20.77;;;9.37;;
18136;SDS011;9194;42.632;23.298;2022-12-29T20:14:26;11.43;;;6.57;;
18136;SDS011;9194;42.632;23.298;2022-12-29T20:19:27;15.70;;;8.83;;
18136;SDS011;9194;42.632;23.298;2022-12-29T20:24:30;22.23;;;9.93;;
18136;SDS011;9194;42.632;23.298;2022-12-29T20:29:33;25.10;;;11.47;;
18136;SDS011;9194;42.632;23.298;2022-12-29T20:34:38;44.13;;;18.70;;
18136;SDS011;9194;42.632;23.298;2022-12-29T20:39:40;43.83;;;19.67;;
18136;SDS011;9194;42.632;23.298;2022-12-29T20:44:43;45.27;;;20.47;;
18136;SDS011;9194;42.632;23.298;2022-12-29T20:49:45;40.13;;;19.03;;
18136;SDS011;9194;42.632;23.298;2022-12-29T20:54:47;33.10;;;16.07;;
18136;SDS011;9194;42.632;23.298;2022-12-29T20:59:48;29.77;;;16.37;;
18136;SDS011;9194;42.632;23.298;2022-12-29T21:04:50;32.77;;;15.20;;
18136;SDS011;9194;42.632;23.298;2022-12-29T21:09:51;28.00;;;14.90;;
18136;SDS011;9194;42.632;23.298;2022-12-29T21:14:52;32.80;;;15.10;;
18136;SDS011;9194;42.632;23.298;2022-12-29T21:19:53;26.87;;;12.23;;
18136;SDS011;9194;42.632;23.298;2022-12-29T21:24:55;20.53;;;10.73;;
18136;SDS011;9194;42.632;23.298;2022-12-29T21:29:56;13.67;;;7.83;;
18136;SDS011;9194;42.632;23.298;2022-12-29T21:34:57;16.60;;;7.70;;
18136;SDS011;9194;42.632;23.298;2022-12-29T21:39:59;13.23;;;6.93;;
18136;SDS011;9194;42.632;23.298;2022-12-29T21:45:00;13.57;;;7.60;;
18136;SDS011;9194;42.632;23.298;2022-12-29T21:50:20;17.83;;;7.53;;
18136;SDS011;9194;42.632;23.298;2022-12-29T21:55:21;13.77;;;7.80;;
18136;SDS011;9194;42.632;23.298;2022-12-29T22:00:22;16.43;;;9.37;;
18136;SDS011;9194;42.632;23.298;2022-12-29T22:05:42;16.97;;;8.37;;
18136;SDS011;9194;42.632;23.298;2022-12-29T22:11:05;27.63;;;13.50;;
18136;SDS011;9194;42.632;23.298;2022-12-29T22:16:26;22.20;;;11.47;;
18136;SDS011;9194;42.632;23.298;2022-12-29T22:21:27;23.00;;;11.57;;
18136;SDS011;9194;42.632;23.298;2022-12-29T22:26:28;22.87;;;12.27;;
18136;SDS011;9194;42.632;23.298;2022-12-29T22:31:30;30.43;;;13.67;;
18136;SDS011;9194;42.632;23.298;2022-12-29T22:36:32;23.30;;;11.30;;
18136;SDS011;9194;42.632;23.298;2022-12-29T22:41:33;26.30;;;12.47;;
18136;SDS011;9194;42.632;23.298;2022-12-29T22:46:35;25.37;;;11.53;;
18136;SDS011;9194;42.632;23.298;2022-12-29T22:51:36;20.50;;;10.83;;
18136;SDS011;9194;42.632;23.298;2022-12-29T22:56:37;17.90;;;9.37;;
18136;SDS011;9194;42.632;23.298;2022-12-29T23:01:41;18.20;;;9.77;;
18136;SDS011;9194;42.632;23.298;2022-12-29T23:06:43;21.97;;;9.17;;
18136;SDS011;9194;42.632;23.298;2022-12-29T23:11:44;20.90;;;10.00;;
18136;SDS011;9194;42.632;23.298;2022-12-29T23:16:46;26.13;;;12.13;;
18136;SDS011;9194;42.632;23.298;2022-12-29T23:21:48;36.80;;;16.83;;
18136;SDS011;9194;42.632;23.298;2022-12-29T23:26:50;45.23;;;19.20;;
18136;SDS011;9194;42.632;23.298;2022-12-29T23:31:51;44.90;;;19.83;;
18136;SDS011;9194;42.632;23.298;2022-12-29T23:36:52;34.23;;;15.70;;
18136;SDS011;9194;42.632;23.298;2022-12-29T23:41:53;29.13;;;14.50;;
18136;SDS011;9194;42.632;23.298;2022-12-29T23:46:55;16.87;;;9.23;;
18136;SDS011;9194;42.632;23.298;2022-12-29T23:51:56;18.87;;;8.07;;
18136;SDS011;9194;42.632;23.298;2022-12-29T23:56:57;10.30;;;6.70;;
